sensor_id;sensor_type;location;lat;lon;timestamp;temperature;humidity
64888;DHT22;51386;53.082;8.816;2023-06-04T00:02:23;17.50;54.00
64888;DHT22;51386;53.082;8.816;2023-06-04T00:04:51;17.50;54.00
64888;DHT22;51386;53.082;8.816;2023-06-04T00:07:20;17.50;54.10
64888;DHT22;51386;53.082;8.816;2023-06-04T00:09:47;17.50;54.10
64888;DHT22;51386;53.082;8.816;2023-06-04T00:12:14;17.50;54.20
64888;DHT22;51386;53.082;8.816;2023-06-04T00:14:42;17.40;54.10
64888;DHT22;51386;53.082;8.816;2023-06-04T00:17:10;17.40;54.50
64888;DHT22;51386;53.082;8.816;2023-06-04T00:19:38;17.40;54.50
64888;DHT22;51386;53.082;8.816;2023-06-04T00:22:06;17.30;54.60
64888;DHT22;51386;53.082;8.816;2023-06-04T00:24:37;17.30;54.60
64888;DHT22;51386;53.082;8.816;2023-06-04T00:27:06;17.20;54.80
64888;DHT22;51386;53.082;8.816;2023-06-04T00:29:34;17.20;54.80
64888;DHT22;51386;53.082;8.816;2023-06-04T00:32:01;17.10;55.50
64888;DHT22;51386;53.082;8.816;2023-06-04T00:34:28;17.10;55.10
64888;DHT22;51386;53.082;8.816;2023-06-04T00:36:55;17.10;55.20
64888;DHT22;51386;53.082;8.816;2023-06-04T00:39:22;17.10;55.30
64888;DHT22;51386;53.082;8.816;2023-06-04T00:41:50;17.10;55.30
64888;DHT22;51386;53.082;8.816;2023-06-04T00:44:17;17.10;55.20
64888;DHT22;51386;53.082;8.816;2023-06-04T00:46:44;17.10;55.30
64888;DHT22;51386;53.082;8.816;2023-06-04T00:49:12;17.10;55.10
64888;DHT22;51386;53.082;8.816;2023-06-04T00:51:39;17.00;55.30
64888;DHT22;51386;53.082;8.816;2023-06-04T00:54:07;17.00;55.40
64888;DHT22;51386;53.082;8.816;2023-06-04T00:56:36;17.00;55.50
64888;DHT22;51386;53.082;8.816;2023-06-04T00:59:06;17.00;55.60
64888;DHT22;51386;53.082;8.816;2023-06-04T01:01:37;17.00;55.40
64888;DHT22;51386;53.082;8.816;2023-06-04T01:04:14;17.00;55.60
64888;DHT22;51386;53.082;8.816;2023-06-04T01:06:46;17.00;55.70
64888;DHT22;51386;53.082;8.816;2023-06-04T01:09:16;17.00;55.70
64888;DHT22;51386;53.082;8.816;2023-06-04T01:11:44;16.90;55.50
64888;DHT22;51386;53.082;8.816;2023-06-04T01:14:13;16.90;55.60
64888;DHT22;51386;53.082;8.816;2023-06-04T01:16:45;16.90;55.60
64888;DHT22;51386;53.082;8.816;2023-06-04T01:19:30;16.90;55.60
64888;DHT22;51386;53.082;8.816;2023-06-04T01:22:18;16.90;55.60
64888;DHT22;51386;53.082;8.816;2023-06-04T01:25:02;16.90;55.40
64888;DHT22;51386;53.082;8.816;2023-06-04T01:27:31;16.80;55.70
64888;DHT22;51386;53.082;8.816;2023-06-04T01:30:00;16.80;55.80
64888;DHT22;51386;53.082;8.816;2023-06-04T01:32:28;16.80;55.70
64888;DHT22;51386;53.082;8.816;2023-06-04T01:34:56;16.70;55.80
64888;DHT22;51386;53.082;8.816;2023-06-04T01:37:23;16.70;56.00
64888;DHT22;51386;53.082;8.816;2023-06-04T01:39:50;16.70;56.10
64888;DHT22;51386;53.082;8.816;2023-06-04T01:42:17;16.70;56.20
64888;DHT22;51386;53.082;8.816;2023-06-04T01:44:44;16.70;56.20
64888;DHT22;51386;53.082;8.816;2023-06-04T01:47:12;16.60;56.30
64888;DHT22;51386;53.082;8.816;2023-06-04T01:49:40;16.70;56.20
64888;DHT22;51386;53.082;8.816;2023-06-04T01:52:07;16.60;56.20
64888;DHT22;51386;53.082;8.816;2023-06-04T01:54:34;16.60;56.30
64888;DHT22;51386;53.082;8.816;2023-06-04T01:57:02;16.60;56.30
64888;DHT22;51386;53.082;8.816;2023-06-04T01:59:30;16.60;56.50
64888;DHT22;51386;53.082;8.816;2023-06-04T02:01:58;16.60;56.60
64888;DHT22;51386;53.082;8.816;2023-06-04T02:04:26;16.60;56.60
64888;DHT22;51386;53.082;8.816;2023-06-04T02:06:54;16.60;56.50
64888;DHT22;51386;53.082;8.816;2023-06-04T02:09:22;16.70;56.50
64888;DHT22;51386;53.082;8.816;2023-06-04T02:11:49;16.70;56.50
64888;DHT22;51386;53.082;8.816;2023-06-04T02:14:16;16.70;56.30
64888;DHT22;51386;53.082;8.816;2023-06-04T02:16:43;16.70;56.40
64888;DHT22;51386;53.082;8.816;2023-06-04T02:19:10;16.60;56.40
64888;DHT22;51386;53.082;8.816;2023-06-04T02:21:40;16.60;56.30
64888;DHT22;51386;53.082;8.816;2023-06-04T02:24:07;16.60;56.60
64888;DHT22;51386;53.082;8.816;2023-06-04T02:26:34;16.60;56.50
64888;DHT22;51386;53.082;8.816;2023-06-04T02:29:02;16.60;56.40
64888;DHT22;51386;53.082;8.816;2023-06-04T02:31:29;16.50;56.60
64888;DHT22;51386;53.082;8.816;2023-06-04T02:33:56;16.50;56.70
64888;DHT22;51386;53.082;8.816;2023-06-04T02:36:23;16.50;57.20
64888;DHT22;51386;53.082;8.816;2023-06-04T02:38:51;16.40;56.80
64888;DHT22;51386;53.082;8.816;2023-06-04T02:41:19;16.40;56.90
64888;DHT22;51386;53.082;8.816;2023-06-04T02:43:46;16.40;57.10
64888;DHT22;51386;53.082;8.816;2023-06-04T02:46:13;16.40;57.20
64888;DHT22;51386;53.082;8.816;2023-06-04T02:48:40;16.40;57.30
64888;DHT22;51386;53.082;8.816;2023-06-04T02:51:07;16.30;56.80
64888;DHT22;51386;53.082;8.816;2023-06-04T02:53:36;16.20;56.80
64888;DHT22;51386;53.082;8.816;2023-06-04T02:56:05;16.20;56.90
64888;DHT22;51386;53.082;8.816;2023-06-04T02:58:32;16.00;57.20
64888;DHT22;51386;53.082;8.816;2023-06-04T03:01:05;16.00;57.50
64888;DHT22;51386;53.082;8.816;2023-06-04T03:03:35;15.90;57.80
64888;DHT22;51386;53.082;8.816;2023-06-04T03:06:02;15.80;57.80
64888;DHT22;51386;53.082;8.816;2023-06-04T03:08:31;15.80;57.90
64888;DHT22;51386;53.082;8.816;2023-06-04T03:10:58;15.70;57.90
64888;DHT22;51386;53.082;8.816;2023-06-04T03:13:26;15.60;58.20
64888;DHT22;51386;53.082;8.816;2023-06-04T03:15:53;15.50;58.40
64888;DHT22;51386;53.082;8.816;2023-06-04T03:18:22;15.40;58.60
64888;DHT22;51386;53.082;8.816;2023-06-04T03:20:49;15.40;59.00
64888;DHT22;51386;53.082;8.816;2023-06-04T03:23:16;15.30;59.10
64888;DHT22;51386;53.082;8.816;2023-06-04T03:25:43;15.20;59.50
64888;DHT22;51386;53.082;8.816;2023-06-04T03:28:11;15.10;59.90
64888;DHT22;51386;53.082;8.816;2023-06-04T03:30:39;15.10;60.20
64888;DHT22;51386;53.082;8.816;2023-06-04T03:33:07;15.20;60.70
64888;DHT22;51386;53.082;8.816;2023-06-04T03:35:34;15.20;60.70
64888;DHT22;51386;53.082;8.816;2023-06-04T03:38:01;15.30;60.30
64888;DHT22;51386;53.082;8.816;2023-06-04T03:40:28;15.30;60.10
64888;DHT22;51386;53.082;8.816;2023-06-04T03:42:55;15.30;60.20
64888;DHT22;51386;53.082;8.816;2023-06-04T03:45:22;15.20;60.20
64888;DHT22;51386;53.082;8.816;2023-06-04T03:47:50;15.20;60.60
64888;DHT22;51386;53.082;8.816;2023-06-04T03:50:17;15.20;61.20
64888;DHT22;51386;53.082;8.816;2023-06-04T03:52:45;15.30;61.40
64888;DHT22;51386;53.082;8.816;2023-06-04T03:55:11;15.30;61.40
64888;DHT22;51386;53.082;8.816;2023-06-04T03:57:39;15.40;62.00
64888;DHT22;51386;53.082;8.816;2023-06-04T04:00:07;15.50;61.10
64888;DHT22;51386;53.082;8.816;2023-06-04T04:02:39;15.60;60.90
64888;DHT22;51386;53.082;8.816;2023-06-04T04:05:08;15.60;60.50
64888;DHT22;51386;53.082;8.816;2023-06-04T04:07:35;15.70;60.60
64888;DHT22;51386;53.082;8.816;2023-06-04T04:10:03;15.70;60.30
64888;DHT22;51386;53.082;8.816;2023-06-04T04:12:32;15.80;60.30
64888;DHT22;51386;53.082;8.816;2023-06-04T04:14:59;15.80;60.30
64888;DHT22;51386;53.082;8.816;2023-06-04T04:17:26;15.80;60.30
64888;DHT22;51386;53.082;8.816;2023-06-04T04:19:53;15.70;60.30
64888;DHT22;51386;53.082;8.816;2023-06-04T04:22:22;15.70;60.60
64888;DHT22;51386;53.082;8.816;2023-06-04T04:24:49;15.80;60.60
64888;DHT22;51386;53.082;8.816;2023-06-04T04:27:16;15.80;61.00
64888;DHT22;51386;53.082;8.816;2023-06-04T04:29:42;15.80;61.00
64888;DHT22;51386;53.082;8.816;2023-06-04T04:32:11;15.80;61.20
64888;DHT22;51386;53.082;8.816;2023-06-04T04:34:38;15.90;61.00
64888;DHT22;51386;53.082;8.816;2023-06-04T04:37:18;16.00;60.80
64888;DHT22;51386;53.082;8.816;2023-06-04T04:39:49;15.90;60.70
64888;DHT22;51386;53.082;8.816;2023-06-04T04:42:18;16.00;60.90
64888;DHT22;51386;53.082;8.816;2023-06-04T04:44:45;15.90;60.70
64888;DHT22;51386;53.082;8.816;2023-06-04T04:47:14;15.90;60.60
64888;DHT22;51386;53.082;8.816;2023-06-04T04:49:42;15.90;60.60
64888;DHT22;51386;53.082;8.816;2023-06-04T04:52:09;15.90;60.70
64888;DHT22;51386;53.082;8.816;2023-06-04T04:54:36;15.80;60.70
64888;DHT22;51386;53.082;8.816;2023-06-04T04:57:04;15.70;61.00
64888;DHT22;51386;53.082;8.816;2023-06-04T04:59:37;15.70;61.50
64888;DHT22;51386;53.082;8.816;2023-06-04T05:02:04;15.60;62.00
64888;DHT22;51386;53.082;8.816;2023-06-04T05:04:32;15.60;63.10
64888;DHT22;51386;53.082;8.816;2023-06-04T05:06:59;15.50;62.40
64888;DHT22;51386;53.082;8.816;2023-06-04T05:09:26;15.60;62.60
64888;DHT22;51386;53.082;8.816;2023-06-04T05:11:53;15.60;62.80
64888;DHT22;51386;53.082;8.816;2023-06-04T05:14:21;15.60;62.80
64888;DHT22;51386;53.082;8.816;2023-06-04T05:16:48;15.60;63.20
64888;DHT22;51386;53.082;8.816;2023-06-04T05:19:16;15.60;63.00
64888;DHT22;51386;53.082;8.816;2023-06-04T05:21:44;15.60;63.50
64888;DHT22;51386;53.082;8.816;2023-06-04T05:24:11;15.70;63.50
64888;DHT22;51386;53.082;8.816;2023-06-04T05:26:38;15.70;63.80
64888;DHT22;51386;53.082;8.816;2023-06-04T05:29:06;15.70;63.50
64888;DHT22;51386;53.082;8.816;2023-06-04T05:31:35;15.80;63.80
64888;DHT22;51386;53.082;8.816;2023-06-04T05:34:03;15.90;63.70
64888;DHT22;51386;53.082;8.816;2023-06-04T05:36:32;16.00;63.60
64888;DHT22;51386;53.082;8.816;2023-06-04T05:38:59;16.00;63.40
64888;DHT22;51386;53.082;8.816;2023-06-04T05:41:27;16.00;63.20
64888;DHT22;51386;53.082;8.816;2023-06-04T05:43:54;16.10;63.30
64888;DHT22;51386;53.082;8.816;2023-06-04T05:46:21;16.10;63.40
64888;DHT22;51386;53.082;8.816;2023-06-04T05:48:50;16.10;63.40
64888;DHT22;51386;53.082;8.816;2023-06-04T05:51:17;16.10;63.40
64888;DHT22;51386;53.082;8.816;2023-06-04T05:53:44;16.10;63.60
64888;DHT22;51386;53.082;8.816;2023-06-04T05:56:12;16.10;63.60
64888;DHT22;51386;53.082;8.816;2023-06-04T05:58:39;16.10;63.80
64888;DHT22;51386;53.082;8.816;2023-06-04T06:01:06;16.10;63.70
64888;DHT22;51386;53.082;8.816;2023-06-04T06:03:34;16.20;63.90
64888;DHT22;51386;53.082;8.816;2023-06-04T06:06:03;16.30;63.90
64888;DHT22;51386;53.082;8.816;2023-06-04T06:08:32;16.30;63.90
64888;DHT22;51386;53.082;8.816;2023-06-04T06:10:59;16.40;64.00
64888;DHT22;51386;53.082;8.816;2023-06-04T06:13:26;16.40;63.80
64888;DHT22;51386;53.082;8.816;2023-06-04T06:15:55;16.50;63.50
64888;DHT22;51386;53.082;8.816;2023-06-04T06:18:22;16.60;63.50
64888;DHT22;51386;53.082;8.816;2023-06-04T06:20:49;16.60;63.10
64888;DHT22;51386;53.082;8.816;2023-06-04T06:23:17;16.70;62.90
64888;DHT22;51386;53.082;8.816;2023-06-04T06:25:45;16.80;62.50
64888;DHT22;51386;53.082;8.816;2023-06-04T06:28:12;16.90;62.20
64888;DHT22;51386;53.082;8.816;2023-06-04T06:30:39;17.00;62.10
64888;DHT22;51386;53.082;8.816;2023-06-04T06:33:06;17.10;61.80
64888;DHT22;51386;53.082;8.816;2023-06-04T06:35:34;17.20;61.80
64888;DHT22;51386;53.082;8.816;2023-06-04T06:38:01;17.20;61.40
64888;DHT22;51386;53.082;8.816;2023-06-04T06:40:30;17.30;61.30
64888;DHT22;51386;53.082;8.816;2023-06-04T06:42:57;17.30;61.10
64888;DHT22;51386;53.082;8.816;2023-06-04T06:45:24;17.40;60.90
64888;DHT22;51386;53.082;8.816;2023-06-04T06:47:51;17.50;60.70
64888;DHT22;51386;53.082;8.816;2023-06-04T06:50:18;17.60;60.40
64888;DHT22;51386;53.082;8.816;2023-06-04T06:52:45;17.70;60.10
64888;DHT22;51386;53.082;8.816;2023-06-04T06:55:12;17.80;59.80
64888;DHT22;51386;53.082;8.816;2023-06-04T06:57:40;17.80;59.50
64888;DHT22;51386;53.082;8.816;2023-06-04T07:00:08;17.90;59.50
64888;DHT22;51386;53.082;8.816;2023-06-04T07:02:36;17.90;59.20
64888;DHT22;51386;53.082;8.816;2023-06-04T07:05:04;18.00;59.20
64888;DHT22;51386;53.082;8.816;2023-06-04T07:07:31;18.10;59.20
64888;DHT22;51386;53.082;8.816;2023-06-04T07:09:58;18.10;58.80
64888;DHT22;51386;53.082;8.816;2023-06-04T07:12:25;18.20;58.60
64888;DHT22;51386;53.082;8.816;2023-06-04T07:14:53;18.30;58.50
64888;DHT22;51386;53.082;8.816;2023-06-04T07:17:20;18.40;57.80
64888;DHT22;51386;53.082;8.816;2023-06-04T07:19:47;18.40;57.60
64888;DHT22;51386;53.082;8.816;2023-06-04T07:22:14;18.60;57.50
64888;DHT22;51386;53.082;8.816;2023-06-04T07:24:42;18.60;57.30
64888;DHT22;51386;53.082;8.816;2023-06-04T07:27:12;18.80;57.30
64888;DHT22;51386;53.082;8.816;2023-06-04T07:29:40;18.80;56.70
64888;DHT22;51386;53.082;8.816;2023-06-04T07:32:12;18.90;56.60
64888;DHT22;51386;53.082;8.816;2023-06-04T07:34:39;19.00;56.50
64888;DHT22;51386;53.082;8.816;2023-06-04T07:37:06;19.20;56.40
64888;DHT22;51386;53.082;8.816;2023-06-04T07:39:34;19.20;56.10
64888;DHT22;51386;53.082;8.816;2023-06-04T07:42:01;19.30;55.70
64888;DHT22;51386;53.082;8.816;2023-06-04T07:44:31;19.30;55.50
64888;DHT22;51386;53.082;8.816;2023-06-04T07:46:58;19.40;55.60
64888;DHT22;51386;53.082;8.816;2023-06-04T07:49:26;19.50;55.60
64888;DHT22;51386;53.082;8.816;2023-06-04T07:51:53;19.60;54.90
64888;DHT22;51386;53.082;8.816;2023-06-04T07:54:20;19.70;55.00
64888;DHT22;51386;53.082;8.816;2023-06-04T07:56:47;19.80;55.00
64888;DHT22;51386;53.082;8.816;2023-06-04T07:59:14;19.80;54.70
64888;DHT22;51386;53.082;8.816;2023-06-04T08:01:41;20.00;54.70
64888;DHT22;51386;53.082;8.816;2023-06-04T08:04:08;20.00;54.30
64888;DHT22;51386;53.082;8.816;2023-06-04T08:06:36;20.10;54.30
64888;DHT22;51386;53.082;8.816;2023-06-04T08:09:06;20.20;54.00
64888;DHT22;51386;53.082;8.816;2023-06-04T08:11:35;20.30;53.40
64888;DHT22;51386;53.082;8.816;2023-06-04T08:14:03;20.30;52.80
64888;DHT22;51386;53.082;8.816;2023-06-04T08:16:31;20.50;52.70
64888;DHT22;51386;53.082;8.816;2023-06-04T08:19:07;20.80;52.70
64888;DHT22;51386;53.082;8.816;2023-06-04T08:21:43;21.50;53.00
64888;DHT22;51386;53.082;8.816;2023-06-04T08:24:27;22.40;50.60
64888;DHT22;51386;53.082;8.816;2023-06-04T08:27:11;23.40;49.70
64888;DHT22;51386;53.082;8.816;2023-06-04T08:29:49;24.30;47.00
64888;DHT22;51386;53.082;8.816;2023-06-04T08:32:36;25.20;44.30
64888;DHT22;51386;53.082;8.816;2023-06-04T08:35:09;26.10;41.60
64888;DHT22;51386;53.082;8.816;2023-06-04T08:37:37;26.90;39.90
64888;DHT22;51386;53.082;8.816;2023-06-04T08:40:06;27.60;37.50
64888;DHT22;51386;53.082;8.816;2023-06-04T08:42:39;28.30;36.20
64888;DHT22;51386;53.082;8.816;2023-06-04T08:45:11;28.90;32.90
64888;DHT22;51386;53.082;8.816;2023-06-04T08:47:44;29.50;31.30
64888;DHT22;51386;53.082;8.816;2023-06-04T08:50:18;30.00;29.70
64888;DHT22;51386;53.082;8.816;2023-06-04T08:52:49;30.40;29.30
64888;DHT22;51386;53.082;8.816;2023-06-04T08:55:19;30.80;27.90
64888;DHT22;51386;53.082;8.816;2023-06-04T08:57:47;31.20;28.30
64888;DHT22;51386;53.082;8.816;2023-06-04T09:00:18;31.50;27.00
64888;DHT22;51386;53.082;8.816;2023-06-04T09:02:47;31.80;27.40
64888;DHT22;51386;53.082;8.816;2023-06-04T09:05:19;32.20;26.60
64888;DHT22;51386;53.082;8.816;2023-06-04T09:07:52;32.50;25.30
64888;DHT22;51386;53.082;8.816;2023-06-04T09:10:24;32.70;24.20
64888;DHT22;51386;53.082;8.816;2023-06-04T09:12:54;33.00;24.00
64888;DHT22;51386;53.082;8.816;2023-06-04T09:15:23;33.20;24.50
64888;DHT22;51386;53.082;8.816;2023-06-04T09:17:50;33.50;23.20
64888;DHT22;51386;53.082;8.816;2023-06-04T09:20:20;33.80;23.50
64888;DHT22;51386;53.082;8.816;2023-06-04T09:22:49;34.00;22.70
64888;DHT22;51386;53.082;8.816;2023-06-04T09:25:21;34.10;22.20
64888;DHT22;51386;53.082;8.816;2023-06-04T09:27:49;34.30;21.70
64888;DHT22;51386;53.082;8.816;2023-06-04T09:30:16;34.40;21.70
64888;DHT22;51386;53.082;8.816;2023-06-04T09:32:43;34.50;21.70
64888;DHT22;51386;53.082;8.816;2023-06-04T09:35:12;34.70;22.00
64888;DHT22;51386;53.082;8.816;2023-06-04T09:37:41;35.00;21.40
64888;DHT22;51386;53.082;8.816;2023-06-04T09:40:11;35.10;21.20
64888;DHT22;51386;53.082;8.816;2023-06-04T09:42:42;35.20;20.50
64888;DHT22;51386;53.082;8.816;2023-06-04T09:45:10;35.30;21.40
64888;DHT22;51386;53.082;8.816;2023-06-04T09:47:39;35.40;20.70
64888;DHT22;51386;53.082;8.816;2023-06-04T09:50:08;35.60;20.90
64888;DHT22;51386;53.082;8.816;2023-06-04T09:52:35;35.70;20.40
64888;DHT22;51386;53.082;8.816;2023-06-04T09:55:16;35.80;20.60
64888;DHT22;51386;53.082;8.816;2023-06-04T09:57:50;35.80;19.90
64888;DHT22;51386;53.082;8.816;2023-06-04T10:00:19;35.70;19.20
64888;DHT22;51386;53.082;8.816;2023-06-04T10:02:53;35.70;19.40
64888;DHT22;51386;53.082;8.816;2023-06-04T10:05:24;35.70;19.90
64888;DHT22;51386;53.082;8.816;2023-06-04T10:07:52;35.60;18.70
64888;DHT22;51386;53.082;8.816;2023-06-04T10:10:26;35.20;18.90
64888;DHT22;51386;53.082;8.816;2023-06-04T10:12:57;35.10;19.20
64888;DHT22;51386;53.082;8.816;2023-06-04T10:15:28;35.10;19.50
64888;DHT22;51386;53.082;8.816;2023-06-04T10:17:59;35.20;19.50
64888;DHT22;51386;53.082;8.816;2023-06-04T10:20:26;35.10;19.20
64888;DHT22;51386;53.082;8.816;2023-06-04T10:22:54;35.20;19.20
64888;DHT22;51386;53.082;8.816;2023-06-04T10:25:23;35.20;18.90
64888;DHT22;51386;53.082;8.816;2023-06-04T10:27:53;35.30;18.70
64888;DHT22;51386;53.082;8.816;2023-06-04T10:30:20;35.30;18.90
64888;DHT22;51386;53.082;8.816;2023-06-04T10:32:47;35.40;18.50
64888;DHT22;51386;53.082;8.816;2023-06-04T10:35:14;35.50;19.00
64888;DHT22;51386;53.082;8.816;2023-06-04T10:37:42;35.50;18.80
64888;DHT22;51386;53.082;8.816;2023-06-04T10:40:09;35.50;19.00
64888;DHT22;51386;53.082;8.816;2023-06-04T10:42:40;35.10;18.70
64888;DHT22;51386;53.082;8.816;2023-06-04T10:45:09;34.50;19.20
64888;DHT22;51386;53.082;8.816;2023-06-04T10:47:37;34.00;19.30
64888;DHT22;51386;53.082;8.816;2023-06-04T10:50:08;33.40;19.10
64888;DHT22;51386;53.082;8.816;2023-06-04T10:52:50;32.80;19.60
64888;DHT22;51386;53.082;8.816;2023-06-04T10:55:18;32.10;21.00
64888;DHT22;51386;53.082;8.816;2023-06-04T10:57:52;31.40;21.60
64888;DHT22;51386;53.082;8.816;2023-06-04T11:00:20;30.70;22.30
64888;DHT22;51386;53.082;8.816;2023-06-04T11:02:52;30.10;22.10
64888;DHT22;51386;53.082;8.816;2023-06-04T11:05:21;29.50;22.60
64888;DHT22;51386;53.082;8.816;2023-06-04T11:07:49;29.10;23.00
64888;DHT22;51386;53.082;8.816;2023-06-04T11:10:17;28.80;23.60
64888;DHT22;51386;53.082;8.816;2023-06-04T11:12:46;28.70;24.00
64888;DHT22;51386;53.082;8.816;2023-06-04T11:15:15;28.60;24.00
64888;DHT22;51386;53.082;8.816;2023-06-04T11:17:50;28.60;24.40
64888;DHT22;51386;53.082;8.816;2023-06-04T11:20:18;28.50;24.80
64888;DHT22;51386;53.082;8.816;2023-06-04T11:22:54;28.30;25.10
64888;DHT22;51386;53.082;8.816;2023-06-04T11:25:24;28.00;25.60
64888;DHT22;51386;53.082;8.816;2023-06-04T11:27:53;27.70;25.90
64888;DHT22;51386;53.082;8.816;2023-06-04T11:30:22;27.50;26.30
64888;DHT22;51386;53.082;8.816;2023-06-04T11:32:50;27.30;26.30
64888;DHT22;51386;53.082;8.816;2023-06-04T11:35:26;27.20;26.50
64888;DHT22;51386;53.082;8.816;2023-06-04T11:37:53;27.00;26.60
64888;DHT22;51386;53.082;8.816;2023-06-04T11:40:22;26.90;26.60
64888;DHT22;51386;53.082;8.816;2023-06-04T11:42:50;26.70;26.80
64888;DHT22;51386;53.082;8.816;2023-06-04T11:45:19;26.60;26.80
64888;DHT22;51386;53.082;8.816;2023-06-04T11:47:51;26.50;27.00
64888;DHT22;51386;53.082;8.816;2023-06-04T11:50:20;26.40;27.20
64888;DHT22;51386;53.082;8.816;2023-06-04T11:52:48;26.30;27.10
64888;DHT22;51386;53.082;8.816;2023-06-04T11:55:16;26.20;27.20
64888;DHT22;51386;53.082;8.816;2023-06-04T11:57:50;26.20;27.30
64888;DHT22;51386;53.082;8.816;2023-06-04T12:00:18;26.10;27.50
64888;DHT22;51386;53.082;8.816;2023-06-04T12:02:52;26.00;27.60
64888;DHT22;51386;53.082;8.816;2023-06-04T12:05:22;26.00;27.60
64888;DHT22;51386;53.082;8.816;2023-06-04T12:08:04;25.90;27.70
64888;DHT22;51386;53.082;8.816;2023-06-04T12:10:37;25.90;27.90
64888;DHT22;51386;53.082;8.816;2023-06-04T12:13:05;25.90;27.80
64888;DHT22;51386;53.082;8.816;2023-06-04T12:15:32;25.90;28.00
64888;DHT22;51386;53.082;8.816;2023-06-04T12:18:01;25.90;28.30
64888;DHT22;51386;53.082;8.816;2023-06-04T12:20:33;25.90;28.80
64888;DHT22;51386;53.082;8.816;2023-06-04T12:23:01;25.90;28.40
64888;DHT22;51386;53.082;8.816;2023-06-04T12:25:29;26.00;28.60
64888;DHT22;51386;53.082;8.816;2023-06-04T12:27:57;26.00;28.70
64888;DHT22;51386;53.082;8.816;2023-06-04T12:30:35;26.10;28.50
64888;DHT22;51386;53.082;8.816;2023-06-04T12:33:04;26.10;28.40
64888;DHT22;51386;53.082;8.816;2023-06-04T12:35:31;26.20;28.20
64888;DHT22;51386;53.082;8.816;2023-06-04T12:37:59;26.20;27.80
64888;DHT22;51386;53.082;8.816;2023-06-04T12:40:26;26.10;27.70
64888;DHT22;51386;53.082;8.816;2023-06-04T12:42:53;26.10;27.80
64888;DHT22;51386;53.082;8.816;2023-06-04T12:45:20;26.10;28.00
64888;DHT22;51386;53.082;8.816;2023-06-04T12:47:47;26.20;27.70
64888;DHT22;51386;53.082;8.816;2023-06-04T12:50:16;26.30;27.80
64888;DHT22;51386;53.082;8.816;2023-06-04T12:52:48;26.30;28.00
64888;DHT22;51386;53.082;8.816;2023-06-04T12:55:15;26.30;28.00
64888;DHT22;51386;53.082;8.816;2023-06-04T12:57:42;26.40;27.90
64888;DHT22;51386;53.082;8.816;2023-06-04T13:00:12;26.40;27.80
64888;DHT22;51386;53.082;8.816;2023-06-04T13:02:39;26.50;27.70
64888;DHT22;51386;53.082;8.816;2023-06-04T13:05:07;26.40;27.60
64888;DHT22;51386;53.082;8.816;2023-06-04T13:07:36;26.40;27.10
64888;DHT22;51386;53.082;8.816;2023-06-04T13:10:03;26.40;27.40
64888;DHT22;51386;53.082;8.816;2023-06-04T13:12:30;26.40;27.80
64888;DHT22;51386;53.082;8.816;2023-06-04T13:14:57;26.40;28.00
64888;DHT22;51386;53.082;8.816;2023-06-04T13:17:24;26.40;28.10
64888;DHT22;51386;53.082;8.816;2023-06-04T13:19:51;26.40;27.40
64888;DHT22;51386;53.082;8.816;2023-06-04T13:22:19;26.40;27.40
64888;DHT22;51386;53.082;8.816;2023-06-04T13:24:47;26.40;27.80
64888;DHT22;51386;53.082;8.816;2023-06-04T13:27:14;26.50;29.10
64888;DHT22;51386;53.082;8.816;2023-06-04T13:29:41;26.50;30.70
64888;DHT22;51386;53.082;8.816;2023-06-04T13:32:10;26.40;33.30
64888;DHT22;51386;53.082;8.816;2023-06-04T13:34:38;26.30;32.40
64888;DHT22;51386;53.082;8.816;2023-06-04T13:37:05;26.30;32.70
64888;DHT22;51386;53.082;8.816;2023-06-04T13:39:33;26.30;32.90
64888;DHT22;51386;53.082;8.816;2023-06-04T13:42:01;26.20;34.60
64888;DHT22;51386;53.082;8.816;2023-06-04T13:44:28;26.10;35.10
64888;DHT22;51386;53.082;8.816;2023-06-04T13:46:58;26.10;35.70
64888;DHT22;51386;53.082;8.816;2023-06-04T13:49:25;25.90;36.20
64888;DHT22;51386;53.082;8.816;2023-06-04T13:51:52;25.80;35.30
64888;DHT22;51386;53.082;8.816;2023-06-04T13:54:19;25.80;35.60
64888;DHT22;51386;53.082;8.816;2023-06-04T13:56:47;25.80;35.70
64888;DHT22;51386;53.082;8.816;2023-06-04T13:59:16;25.70;36.00
64888;DHT22;51386;53.082;8.816;2023-06-04T14:01:43;25.60;35.30
64888;DHT22;51386;53.082;8.816;2023-06-04T14:04:10;25.60;36.00
64888;DHT22;51386;53.082;8.816;2023-06-04T14:06:38;25.60;36.30
64888;DHT22;51386;53.082;8.816;2023-06-04T14:09:05;25.60;36.90
64888;DHT22;51386;53.082;8.816;2023-06-04T14:11:33;25.60;36.90
64888;DHT22;51386;53.082;8.816;2023-06-04T14:14:00;25.70;36.00
64888;DHT22;51386;53.082;8.816;2023-06-04T14:16:29;25.70;35.40
64888;DHT22;51386;53.082;8.816;2023-06-04T14:18:56;25.80;36.20
64888;DHT22;51386;53.082;8.816;2023-06-04T14:21:23;25.80;36.80
64888;DHT22;51386;53.082;8.816;2023-06-04T14:23:50;25.90;37.10
64888;DHT22;51386;53.082;8.816;2023-06-04T14:26:17;25.80;37.30
64888;DHT22;51386;53.082;8.816;2023-06-04T14:28:44;25.80;37.10
64888;DHT22;51386;53.082;8.816;2023-06-04T14:31:11;25.80;36.80
64888;DHT22;51386;53.082;8.816;2023-06-04T14:33:40;25.90;36.90
64888;DHT22;51386;53.082;8.816;2023-06-04T14:36:07;25.80;37.30
64888;DHT22;51386;53.082;8.816;2023-06-04T14:38:34;25.80;37.50
64888;DHT22;51386;53.082;8.816;2023-06-04T14:41:01;25.80;38.20
64888;DHT22;51386;53.082;8.816;2023-06-04T14:43:28;25.80;37.90
64888;DHT22;51386;53.082;8.816;2023-06-04T14:45:55;25.70;37.90
64888;DHT22;51386;53.082;8.816;2023-06-04T14:48:22;25.80;37.60
64888;DHT22;51386;53.082;8.816;2023-06-04T14:50:51;25.80;37.70
64888;DHT22;51386;53.082;8.816;2023-06-04T14:53:22;25.90;38.20
64888;DHT22;51386;53.082;8.816;2023-06-04T14:55:50;26.00;38.30
64888;DHT22;51386;53.082;8.816;2023-06-04T14:58:18;26.30;38.00
64888;DHT22;51386;53.082;8.816;2023-06-04T15:00:45;26.60;37.30
64888;DHT22;51386;53.082;8.816;2023-06-04T15:03:12;26.80;37.20
64888;DHT22;51386;53.082;8.816;2023-06-04T15:05:39;27.10;36.50
64888;DHT22;51386;53.082;8.816;2023-06-04T15:08:08;27.30;36.30
64888;DHT22;51386;53.082;8.816;2023-06-04T15:10:35;27.40;35.60
64888;DHT22;51386;53.082;8.816;2023-06-04T15:13:02;27.50;35.10
64888;DHT22;51386;53.082;8.816;2023-06-04T15:15:32;27.50;34.90
64888;DHT22;51386;53.082;8.816;2023-06-04T15:17:59;27.30;34.90
64888;DHT22;51386;53.082;8.816;2023-06-04T15:20:26;27.20;35.10
64888;DHT22;51386;53.082;8.816;2023-06-04T15:22:55;27.10;35.30
64888;DHT22;51386;53.082;8.816;2023-06-04T15:25:23;27.00;35.40
64888;DHT22;51386;53.082;8.816;2023-06-04T15:27:50;27.00;35.80
64888;DHT22;51386;53.082;8.816;2023-06-04T15:30:18;26.80;35.90
64888;DHT22;51386;53.082;8.816;2023-06-04T15:32:47;26.70;36.40
64888;DHT22;51386;53.082;8.816;2023-06-04T15:35:14;26.40;36.80
64888;DHT22;51386;53.082;8.816;2023-06-04T15:37:41;26.30;37.30
64888;DHT22;51386;53.082;8.816;2023-06-04T15:40:08;26.10;37.40